sensor_id;sensor_type;location;lat;lon;timestamp;temperature;humidity
46139;DHT22;32398;49.112;8.598;2023-06-22T00:01:07;25.90;67.60
46139;DHT22;32398;49.112;8.598;2023-06-22T00:03:35;25.90;67.70
46139;DHT22;32398;49.112;8.598;2023-06-22T00:06:01;25.80;67.70
46139;DHT22;32398;49.112;8.598;2023-06-22T00:08:28;25.80;67.80
46139;DHT22;32398;49.112;8.598;2023-06-22T00:10:54;25.80;67.90
46139;DHT22;32398;49.112;8.598;2023-06-22T00:13:21;25.70;68.00
46139;DHT22;32398;49.112;8.598;2023-06-22T00:15:47;25.70;68.10
46139;DHT22;32398;49.112;8.598;2023-06-22T00:18:14;25.70;68.20
46139;DHT22;32398;49.112;8.598;2023-06-22T00:20:42;25.60;68.20
46139;DHT22;32398;49.112;8.598;2023-06-22T00:23:11;25.60;68.30
46139;DHT22;32398;49.112;8.598;2023-06-22T00:25:39;25.60;68.30
46139;DHT22;32398;49.112;8.598;2023-06-22T00:28:06;25.60;68.50
46139;DHT22;32398;49.112;8.598;2023-06-22T00:30:33;25.50;68.40
46139;DHT22;32398;49.112;8.598;2023-06-22T00:33:00;25.50;68.50
46139;DHT22;32398;49.112;8.598;2023-06-22T00:35:27;25.50;68.70
46139;DHT22;32398;49.112;8.598;2023-06-22T00:37:56;25.40;68.70
46139;DHT22;32398;49.112;8.598;2023-06-22T00:40:26;25.40;68.80
46139;DHT22;32398;49.112;8.598;2023-06-22T00:42:52;25.30;68.80
46139;DHT22;32398;49.112;8.598;2023-06-22T00:45:19;25.30;68.80
46139;DHT22;32398;49.112;8.598;2023-06-22T00:47:46;25.30;68.80
46139;DHT22;32398;49.112;8.598;2023-06-22T00:50:13;25.30;68.90
46139;DHT22;32398;49.112;8.598;2023-06-22T00:52:43;25.30;68.80
46139;DHT22;32398;49.112;8.598;2023-06-22T00:55:13;25.20;68.80
46139;DHT22;32398;49.112;8.598;2023-06-22T00:57:43;25.20;68.90
46139;DHT22;32398;49.112;8.598;2023-06-22T01:00:10;25.20;69.30
46139;DHT22;32398;49.112;8.598;2023-06-22T01:02:43;25.10;69.40
46139;DHT22;32398;49.112;8.598;2023-06-22T01:05:11;25.10;69.70
46139;DHT22;32398;49.112;8.598;2023-06-22T01:07:39;25.10;70.00
46139;DHT22;32398;49.112;8.598;2023-06-22T01:10:10;25.10;70.20
46139;DHT22;32398;49.112;8.598;2023-06-22T01:12:42;25.00;70.20
46139;DHT22;32398;49.112;8.598;2023-06-22T01:15:10;25.00;71.20
46139;DHT22;32398;49.112;8.598;2023-06-22T01:17:38;25.00;70.60
46139;DHT22;32398;49.112;8.598;2023-06-22T01:20:07;25.00;70.70
46139;DHT22;32398;49.112;8.598;2023-06-22T01:22:38;24.90;70.80
46139;DHT22;32398;49.112;8.598;2023-06-22T01:25:10;24.90;71.00
46139;DHT22;32398;49.112;8.598;2023-06-22T01:27:44;24.90;71.00
46139;DHT22;32398;49.112;8.598;2023-06-22T01:30:15;24.90;71.20
46139;DHT22;32398;49.112;8.598;2023-06-22T01:32:42;24.80;71.30
46139;DHT22;32398;49.112;8.598;2023-06-22T01:35:09;24.80;71.50
46139;DHT22;32398;49.112;8.598;2023-06-22T01:37:36;24.80;71.60
46139;DHT22;32398;49.112;8.598;2023-06-22T01:40:04;24.80;71.70
46139;DHT22;32398;49.112;8.598;2023-06-22T01:42:31;24.70;71.70
46139;DHT22;32398;49.112;8.598;2023-06-22T01:44:58;24.70;71.80
46139;DHT22;32398;49.112;8.598;2023-06-22T01:47:26;24.70;71.90
46139;DHT22;32398;49.112;8.598;2023-06-22T01:49:53;24.60;71.90
46139;DHT22;32398;49.112;8.598;2023-06-22T01:52:20;24.60;72.10
46139;DHT22;32398;49.112;8.598;2023-06-22T01:54:47;24.60;72.30
46139;DHT22;32398;49.112;8.598;2023-06-22T01:57:14;24.50;72.40
46139;DHT22;32398;49.112;8.598;2023-06-22T01:59:42;24.50;72.50
46139;DHT22;32398;49.112;8.598;2023-06-22T02:02:11;24.50;72.60
46139;DHT22;32398;49.112;8.598;2023-06-22T02:04:42;24.40;72.80
46139;DHT22;32398;49.112;8.598;2023-06-22T02:07:12;24.40;72.80
46139;DHT22;32398;49.112;8.598;2023-06-22T02:09:41;24.40;72.90
46139;DHT22;32398;49.112;8.598;2023-06-22T02:12:10;24.30;72.80
46139;DHT22;32398;49.112;8.598;2023-06-22T02:14:37;24.30;72.90
46139;DHT22;32398;49.112;8.598;2023-06-22T02:17:05;24.30;72.90
46139;DHT22;32398;49.112;8.598;2023-06-22T02:19:35;24.30;73.30
46139;DHT22;32398;49.112;8.598;2023-06-22T02:22:03;24.30;73.10
46139;DHT22;32398;49.112;8.598;2023-06-22T02:24:30;24.20;73.00
46139;DHT22;32398;49.112;8.598;2023-06-22T02:26:58;24.20;73.10
46139;DHT22;32398;49.112;8.598;2023-06-22T02:29:25;24.20;73.10
46139;DHT22;32398;49.112;8.598;2023-06-22T02:31:52;24.20;73.10
46139;DHT22;32398;49.112;8.598;2023-06-22T02:34:18;24.10;73.10
46139;DHT22;32398;49.112;8.598;2023-06-22T02:36:45;24.10;73.20
46139;DHT22;32398;49.112;8.598;2023-06-22T02:39:18;24.00;73.20
46139;DHT22;32398;49.112;8.598;2023-06-22T02:41:45;24.00;73.10
46139;DHT22;32398;49.112;8.598;2023-06-22T02:44:11;24.00;73.20
46139;DHT22;32398;49.112;8.598;2023-06-22T02:46:38;24.00;73.30
46139;DHT22;32398;49.112;8.598;2023-06-22T02:49:04;24.00;73.30
46139;DHT22;32398;49.112;8.598;2023-06-22T02:51:32;23.90;73.30
46139;DHT22;32398;49.112;8.598;2023-06-22T02:53:59;23.90;73.40
46139;DHT22;32398;49.112;8.598;2023-06-22T02:56:28;23.80;73.40
46139;DHT22;32398;49.112;8.598;2023-06-22T02:58:55;23.80;73.40
46139;DHT22;32398;49.112;8.598;2023-06-22T03:01:26;23.80;73.40
46139;DHT22;32398;49.112;8.598;2023-06-22T03:03:53;23.80;73.40
46139;DHT22;32398;49.112;8.598;2023-06-22T03:06:19;23.80;73.50
46139;DHT22;32398;49.112;8.598;2023-06-22T03:08:48;23.80;73.60
46139;DHT22;32398;49.112;8.598;2023-06-22T03:11:15;23.70;73.50
46139;DHT22;32398;49.112;8.598;2023-06-22T03:13:43;23.70;73.60
46139;DHT22;32398;49.112;8.598;2023-06-22T03:16:10;23.70;73.60
46139;DHT22;32398;49.112;8.598;2023-06-22T03:18:37;23.70;73.60
46139;DHT22;32398;49.112;8.598;2023-06-22T03:21:04;23.60;73.60
46139;DHT22;32398;49.112;8.598;2023-06-22T03:23:30;23.60;73.70
46139;DHT22;32398;49.112;8.598;2023-06-22T03:25:57;23.60;73.70
46139;DHT22;32398;49.112;8.598;2023-06-22T03:28:23;23.50;73.70
46139;DHT22;32398;49.112;8.598;2023-06-22T03:30:51;23.50;73.70
46139;DHT22;32398;49.112;8.598;2023-06-22T03:33:18;23.50;73.80
46139;DHT22;32398;49.112;8.598;2023-06-22T03:35:44;23.50;73.80
46139;DHT22;32398;49.112;8.598;2023-06-22T03:38:11;23.40;73.80
46139;DHT22;32398;49.112;8.598;2023-06-22T03:40:37;23.40;73.80
46139;DHT22;32398;49.112;8.598;2023-06-22T03:43:04;23.40;73.90
46139;DHT22;32398;49.112;8.598;2023-06-22T03:45:30;23.40;73.90
46139;DHT22;32398;49.112;8.598;2023-06-22T03:47:58;23.40;74.00
46139;DHT22;32398;49.112;8.598;2023-06-22T03:50:25;23.40;74.10
46139;DHT22;32398;49.112;8.598;2023-06-22T03:52:51;23.40;74.10
46139;DHT22;32398;49.112;8.598;2023-06-22T03:55:19;23.30;74.10
46139;DHT22;32398;49.112;8.598;2023-06-22T03:57:45;23.30;74.10
46139;DHT22;32398;49.112;8.598;2023-06-22T04:00:12;23.20;74.20
46139;DHT22;32398;49.112;8.598;2023-06-22T04:02:41;23.30;74.20
46139;DHT22;32398;49.112;8.598;2023-06-22T04:05:09;23.20;74.20
46139;DHT22;32398;49.112;8.598;2023-06-22T04:07:35;23.20;74.30
46139;DHT22;32398;49.112;8.598;2023-06-22T04:10:03;23.10;74.30
46139;DHT22;32398;49.112;8.598;2023-06-22T04:12:29;23.20;74.50
46139;DHT22;32398;49.112;8.598;2023-06-22T04:14:56;23.10;74.40
46139;DHT22;32398;49.112;8.598;2023-06-22T04:17:23;23.10;74.50
46139;DHT22;32398;49.112;8.598;2023-06-22T04:19:50;23.10;74.60
46139;DHT22;32398;49.112;8.598;2023-06-22T04:22:18;23.10;74.60
46139;DHT22;32398;49.112;8.598;2023-06-22T04:24:44;23.00;74.60
46139;DHT22;32398;49.112;8.598;2023-06-22T04:27:11;23.10;74.70
46139;DHT22;32398;49.112;8.598;2023-06-22T04:29:37;23.00;74.70
46139;DHT22;32398;49.112;8.598;2023-06-22T04:32:14;23.00;74.70
46139;DHT22;32398;49.112;8.598;2023-06-22T04:34:40;23.00;74.80
46139;DHT22;32398;49.112;8.598;2023-06-22T04:37:07;23.00;74.90
46139;DHT22;32398;49.112;8.598;2023-06-22T04:39:34;23.00;74.90
46139;DHT22;32398;49.112;8.598;2023-06-22T04:42:02;22.90;74.90
46139;DHT22;32398;49.112;8.598;2023-06-22T04:44:28;22.90;75.00
46139;DHT22;32398;49.112;8.598;2023-06-22T04:46:56;22.90;75.00
46139;DHT22;32398;49.112;8.598;2023-06-22T04:49:25;22.90;75.10
46139;DHT22;32398;49.112;8.598;2023-06-22T04:51:58;22.90;75.20
46139;DHT22;32398;49.112;8.598;2023-06-22T04:54:25;22.80;75.20
46139;DHT22;32398;49.112;8.598;2023-06-22T04:56:52;22.80;75.30
46139;DHT22;32398;49.112;8.598;2023-06-22T04:59:21;22.80;75.40
46139;DHT22;32398;49.112;8.598;2023-06-22T05:01:54;22.80;75.40
46139;DHT22;32398;49.112;8.598;2023-06-22T05:04:21;22.80;75.50
46139;DHT22;32398;49.112;8.598;2023-06-22T05:06:47;22.80;75.50
46139;DHT22;32398;49.112;8.598;2023-06-22T05:09:14;22.80;75.60
46139;DHT22;32398;49.112;8.598;2023-06-22T05:11:40;22.80;75.60
46139;DHT22;32398;49.112;8.598;2023-06-22T05:14:08;22.80;75.60
46139;DHT22;32398;49.112;8.598;2023-06-22T05:16:35;22.70;75.60
46139;DHT22;32398;49.112;8.598;2023-06-22T05:19:02;22.70;75.70
46139;DHT22;32398;49.112;8.598;2023-06-22T05:21:29;22.70;75.80
46139;DHT22;32398;49.112;8.598;2023-06-22T05:23:56;22.80;75.90
46139;DHT22;32398;49.112;8.598;2023-06-22T05:26:25;22.70;75.90
46139;DHT22;32398;49.112;8.598;2023-06-22T05:28:52;22.70;75.90
46139;DHT22;32398;49.112;8.598;2023-06-22T05:31:20;22.70;76.00
46139;DHT22;32398;49.112;8.598;2023-06-22T05:33:47;22.60;78.80
46139;DHT22;32398;49.112;8.598;2023-06-22T05:36:14;22.50;81.40
46139;DHT22;32398;49.112;8.598;2023-06-22T05:38:41;22.40;82.70
46139;DHT22;32398;49.112;8.598;2023-06-22T05:41:08;22.40;82.50
46139;DHT22;32398;49.112;8.598;2023-06-22T05:43:34;22.40;82.20
46139;DHT22;32398;49.112;8.598;2023-06-22T05:46:01;22.40;82.10
46139;DHT22;32398;49.112;8.598;2023-06-22T05:48:29;22.40;82.00
46139;DHT22;32398;49.112;8.598;2023-06-22T05:50:55;22.40;81.70
46139;DHT22;32398;49.112;8.598;2023-06-22T05:53:22;22.40;81.40
46139;DHT22;32398;49.112;8.598;2023-06-22T05:55:48;22.40;81.20
46139;DHT22;32398;49.112;8.598;2023-06-22T05:58:15;22.50;81.10
46139;DHT22;32398;49.112;8.598;2023-06-22T06:00:42;22.50;81.00
46139;DHT22;32398;49.112;8.598;2023-06-22T06:03:09;22.50;80.90
46139;DHT22;32398;49.112;8.598;2023-06-22T06:05:37;22.50;80.70
46139;DHT22;32398;49.112;8.598;2023-06-22T06:08:05;22.50;80.60
46139;DHT22;32398;49.112;8.598;2023-06-22T06:10:32;22.50;80.60
46139;DHT22;32398;49.112;8.598;2023-06-22T06:12:58;22.50;80.40
46139;DHT22;32398;49.112;8.598;2023-06-22T06:15:27;22.60;80.40
46139;DHT22;32398;49.112;8.598;2023-06-22T06:17:54;22.60;80.20
46139;DHT22;32398;49.112;8.598;2023-06-22T06:20:21;22.60;80.20
46139;DHT22;32398;49.112;8.598;2023-06-22T06:22:49;22.60;80.30
46139;DHT22;32398;49.112;8.598;2023-06-22T06:25:16;22.60;80.10
46139;DHT22;32398;49.112;8.598;2023-06-22T06:27:44;22.60;80.20
46139;DHT22;32398;49.112;8.598;2023-06-22T06:30:12;22.70;81.70
46139;DHT22;32398;49.112;8.598;2023-06-22T06:32:39;22.70;82.70
46139;DHT22;32398;49.112;8.598;2023-06-22T06:35:06;22.80;82.90
46139;DHT22;32398;49.112;8.598;2023-06-22T06:37:35;22.90;82.60
46139;DHT22;32398;49.112;8.598;2023-06-22T06:40:03;22.90;82.20
46139;DHT22;32398;49.112;8.598;2023-06-22T06:42:31;23.00;81.90
46139;DHT22;32398;49.112;8.598;2023-06-22T06:44:58;23.00;81.50
46139;DHT22;32398;49.112;8.598;2023-06-22T06:47:24;23.10;81.20
46139;DHT22;32398;49.112;8.598;2023-06-22T06:49:51;23.20;80.90
46139;DHT22;32398;49.112;8.598;2023-06-22T06:52:17;23.20;80.60
46139;DHT22;32398;49.112;8.598;2023-06-22T06:54:45;23.20;80.30
46139;DHT22;32398;49.112;8.598;2023-06-22T06:57:12;23.30;80.20
46139;DHT22;32398;49.112;8.598;2023-06-22T06:59:40;23.30;80.00
46139;DHT22;32398;49.112;8.598;2023-06-22T07:02:07;23.40;79.90
46139;DHT22;32398;49.112;8.598;2023-06-22T07:04:34;23.40;79.90
46139;DHT22;32398;49.112;8.598;2023-06-22T07:07:01;23.50;79.70
46139;DHT22;32398;49.112;8.598;2023-06-22T07:09:28;23.50;79.60
46139;DHT22;32398;49.112;8.598;2023-06-22T07:11:54;23.50;79.50
46139;DHT22;32398;49.112;8.598;2023-06-22T07:14:22;23.60;79.40
46139;DHT22;32398;49.112;8.598;2023-06-22T07:16:49;23.60;79.20
46139;DHT22;32398;49.112;8.598;2023-06-22T07:19:15;23.60;79.20
46139;DHT22;32398;49.112;8.598;2023-06-22T07:21:42;23.70;79.20
46139;DHT22;32398;49.112;8.598;2023-06-22T07:24:08;23.60;79.00
46139;DHT22;32398;49.112;8.598;2023-06-22T07:26:35;23.70;79.00
46139;DHT22;32398;49.112;8.598;2023-06-22T07:29:01;23.70;79.00
46139;DHT22;32398;49.112;8.598;2023-06-22T07:31:31;23.80;79.10
46139;DHT22;32398;49.112;8.598;2023-06-22T07:33:57;23.80;78.90
46139;DHT22;32398;49.112;8.598;2023-06-22T07:36:24;23.80;78.80
46139;DHT22;32398;49.112;8.598;2023-06-22T07:38:50;23.80;78.80
46139;DHT22;32398;49.112;8.598;2023-06-22T07:41:17;23.80;78.80
46139;DHT22;32398;49.112;8.598;2023-06-22T07:43:44;23.90;78.80
46139;DHT22;32398;49.112;8.598;2023-06-22T07:46:11;23.90;78.80
46139;DHT22;32398;49.112;8.598;2023-06-22T07:48:39;23.90;78.60
46139;DHT22;32398;49.112;8.598;2023-06-22T07:51:07;24.00;78.60
46139;DHT22;32398;49.112;8.598;2023-06-22T07:53:33;24.00;78.60
46139;DHT22;32398;49.112;8.598;2023-06-22T07:56:01;24.00;78.60
46139;DHT22;32398;49.112;8.598;2023-06-22T07:58:32;24.00;78.50
46139;DHT22;32398;49.112;8.598;2023-06-22T08:00:59;24.00;78.40
46139;DHT22;32398;49.112;8.598;2023-06-22T08:03:25;24.00;78.40
46139;DHT22;32398;49.112;8.598;2023-06-22T08:05:53;24.10;78.40
46139;DHT22;32398;49.112;8.598;2023-06-22T08:08:19;24.10;78.30
46139;DHT22;32398;49.112;8.598;2023-06-22T08:10:46;24.10;78.30
46139;DHT22;32398;49.112;8.598;2023-06-22T08:13:12;24.20;78.30
46139;DHT22;32398;49.112;8.598;2023-06-22T08:15:39;24.20;79.10
46139;DHT22;32398;49.112;8.598;2023-06-22T08:18:05;24.20;78.30
46139;DHT22;32398;49.112;8.598;2023-06-22T08:20:32;24.30;78.30
46139;DHT22;32398;49.112;8.598;2023-06-22T08:23:00;24.30;78.20
46139;DHT22;32398;49.112;8.598;2023-06-22T08:25:31;24.30;78.10
46139;DHT22;32398;49.112;8.598;2023-06-22T08:27:57;24.30;78.00
46139;DHT22;32398;49.112;8.598;2023-06-22T08:30:24;24.40;78.00
46139;DHT22;32398;49.112;8.598;2023-06-22T08:32:51;24.40;78.00
46139;DHT22;32398;49.112;8.598;2023-06-22T08:35:17;24.50;77.90
46139;DHT22;32398;49.112;8.598;2023-06-22T08:37:44;24.50;77.80
46139;DHT22;32398;49.112;8.598;2023-06-22T08:40:17;24.50;77.70
46139;DHT22;32398;49.112;8.598;2023-06-22T08:42:45;24.50;77.50
46139;DHT22;32398;49.112;8.598;2023-06-22T08:45:12;24.60;77.40
46139;DHT22;32398;49.112;8.598;2023-06-22T08:47:38;24.60;77.20
46139;DHT22;32398;49.112;8.598;2023-06-22T08:50:06;24.70;77.10
46139;DHT22;32398;49.112;8.598;2023-06-22T08:52:34;24.70;76.90
46139;DHT22;32398;49.112;8.598;2023-06-22T08:55:00;24.70;76.70
46139;DHT22;32398;49.112;8.598;2023-06-22T08:57:28;24.70;76.50
46139;DHT22;32398;49.112;8.598;2023-06-22T08:59:55;24.80;76.60
46139;DHT22;32398;49.112;8.598;2023-06-22T09:02:23;24.90;76.70
46139;DHT22;32398;49.112;8.598;2023-06-22T09:04:50;24.90;76.50
46139;DHT22;32398;49.112;8.598;2023-06-22T09:07:20;24.90;76.40
46139;DHT22;32398;49.112;8.598;2023-06-22T09:09:49;25.00;76.20
46139;DHT22;32398;49.112;8.598;2023-06-22T09:12:15;25.00;76.00
46139;DHT22;32398;49.112;8.598;2023-06-22T09:14:43;25.10;76.00
46139;DHT22;32398;49.112;8.598;2023-06-22T09:17:10;25.10;75.80
46139;DHT22;32398;49.112;8.598;2023-06-22T09:19:36;25.10;75.50
46139;DHT22;32398;49.112;8.598;2023-06-22T09:22:03;25.20;75.50
46139;DHT22;32398;49.112;8.598;2023-06-22T09:24:31;25.20;75.30
46139;DHT22;32398;49.112;8.598;2023-06-22T09:26:57;25.30;75.30
46139;DHT22;32398;49.112;8.598;2023-06-22T09:29:24;25.30;75.10
46139;DHT22;32398;49.112;8.598;2023-06-22T09:31:52;25.30;75.00
46139;DHT22;32398;49.112;8.598;2023-06-22T09:34:19;25.40;74.90
46139;DHT22;32398;49.112;8.598;2023-06-22T09:36:45;25.40;74.80
46139;DHT22;32398;49.112;8.598;2023-06-22T09:39:12;25.50;74.80
46139;DHT22;32398;49.112;8.598;2023-06-22T09:41:38;25.50;74.60
46139;DHT22;32398;49.112;8.598;2023-06-22T09:44:05;25.50;74.40
46139;DHT22;32398;49.112;8.598;2023-06-22T09:46:31;25.60;74.30
46139;DHT22;32398;49.112;8.598;2023-06-22T09:48:59;25.60;74.00
46139;DHT22;32398;49.112;8.598;2023-06-22T09:51:26;25.70;73.80
46139;DHT22;32398;49.112;8.598;2023-06-22T09:53:52;25.70;73.50
46139;DHT22;32398;49.112;8.598;2023-06-22T09:56:20;25.80;73.30
46139;DHT22;32398;49.112;8.598;2023-06-22T09:58:47;25.90;73.00
46139;DHT22;32398;49.112;8.598;2023-06-22T10:01:15;25.90;72.80
46139;DHT22;32398;49.112;8.598;2023-06-22T10:03:42;25.90;72.80
46139;DHT22;32398;49.112;8.598;2023-06-22T10:06:10;26.00;72.60
46139;DHT22;32398;49.112;8.598;2023-06-22T10:08:36;26.00;72.40
46139;DHT22;32398;49.112;8.598;2023-06-22T10:11:03;26.10;72.30
46139;DHT22;32398;49.112;8.598;2023-06-22T10:13:29;26.10;72.30
46139;DHT22;32398;49.112;8.598;2023-06-22T10:15:56;26.20;72.40
46139;DHT22;32398;49.112;8.598;2023-06-22T10:18:22;26.20;72.00
46139;DHT22;32398;49.112;8.598;2023-06-22T10:20:50;26.30;71.80
46139;DHT22;32398;49.112;8.598;2023-06-22T10:23:18;26.30;71.60
46139;DHT22;32398;49.112;8.598;2023-06-22T10:25:45;26.40;71.40
46139;DHT22;32398;49.112;8.598;2023-06-22T10:28:11;26.40;71.40
46139;DHT22;32398;49.112;8.598;2023-06-22T10:30:38;26.50;71.40
46139;DHT22;32398;49.112;8.598;2023-06-22T10:33:06;26.50;71.30
46139;DHT22;32398;49.112;8.598;2023-06-22T10:35:33;26.50;71.20
46139;DHT22;32398;49.112;8.598;2023-06-22T10:37:59;26.60;71.20
46139;DHT22;32398;49.112;8.598;2023-06-22T10:40:27;26.60;71.10
46139;DHT22;32398;49.112;8.598;2023-06-22T10:42:54;26.60;71.00
46139;DHT22;32398;49.112;8.598;2023-06-22T10:45:20;26.70;71.00
46139;DHT22;32398;49.112;8.598;2023-06-22T10:47:47;26.70;70.90
46139;DHT22;32398;49.112;8.598;2023-06-22T10:50:13;26.80;70.80
46139;DHT22;32398;49.112;8.598;2023-06-22T10:52:40;26.70;70.60
46139;DHT22;32398;49.112;8.598;2023-06-22T10:55:07;26.80;70.60
46139;DHT22;32398;49.112;8.598;2023-06-22T10:57:35;26.80;70.50
46139;DHT22;32398;49.112;8.598;2023-06-22T11:00:05;26.90;70.40
46139;DHT22;32398;49.112;8.598;2023-06-22T11:02:31;26.90;70.30
46139;DHT22;32398;49.112;8.598;2023-06-22T11:04:58;26.90;70.20
46139;DHT22;32398;49.112;8.598;2023-06-22T11:07:26;27.00;70.10
46139;DHT22;32398;49.112;8.598;2023-06-22T11:09:54;27.00;69.90
46139;DHT22;32398;49.112;8.598;2023-06-22T11:12:20;27.10;69.90
46139;DHT22;32398;49.112;8.598;2023-06-22T11:14:48;27.10;69.90
46139;DHT22;32398;49.112;8.598;2023-06-22T11:17:16;27.10;69.80
46139;DHT22;32398;49.112;8.598;2023-06-22T11:19:43;27.10;69.70
46139;DHT22;32398;49.112;8.598;2023-06-22T11:22:10;27.20;69.60
46139;DHT22;32398;49.112;8.598;2023-06-22T11:24:36;27.20;69.30
46139;DHT22;32398;49.112;8.598;2023-06-22T11:27:03;27.30;69.10
46139;DHT22;32398;49.112;8.598;2023-06-22T11:29:29;27.30;69.00
46139;DHT22;32398;49.112;8.598;2023-06-22T11:31:57;27.40;69.00
46139;DHT22;32398;49.112;8.598;2023-06-22T11:34:24;27.40;69.50
46139;DHT22;32398;49.112;8.598;2023-06-22T11:36:51;27.40;68.70
46139;DHT22;32398;49.112;8.598;2023-06-22T11:39:17;27.50;68.80
46139;DHT22;32398;49.112;8.598;2023-06-22T11:41:44;27.50;68.60
46139;DHT22;32398;49.112;8.598;2023-06-22T11:44:10;27.50;69.30
46139;DHT22;32398;49.112;8.598;2023-06-22T11:46:37;27.60;68.60
46139;DHT22;32398;49.112;8.598;2023-06-22T11:49:05;27.60;68.60
46139;DHT22;32398;49.112;8.598;2023-06-22T11:51:31;27.60;68.60
46139;DHT22;32398;49.112;8.598;2023-06-22T11:53:58;27.60;68.70
46139;DHT22;32398;49.112;8.598;2023-06-22T11:56:25;27.60;68.70
46139;DHT22;32398;49.112;8.598;2023-06-22T11:58:53;27.70;68.70
46139;DHT22;32398;49.112;8.598;2023-06-22T12:01:19;27.70;68.80
46139;DHT22;32398;49.112;8.598;2023-06-22T12:03:46;27.70;68.70
46139;DHT22;32398;49.112;8.598;2023-06-22T12:06:15;27.70;68.70
46139;DHT22;32398;49.112;8.598;2023-06-22T12:08:41;27.70;68.60
46139;DHT22;32398;49.112;8.598;2023-06-22T12:11:08;27.70;68.70
46139;DHT22;32398;49.112;8.598;2023-06-22T12:13:34;27.80;68.80
46139;DHT22;32398;49.112;8.598;2023-06-22T12:16:01;27.80;68.80
46139;DHT22;32398;49.112;8.598;2023-06-22T12:18:27;27.80;68.70
46139;DHT22;32398;49.112;8.598;2023-06-22T12:20:54;27.80;69.40
46139;DHT22;32398;49.112;8.598;2023-06-22T12:23:22;27.80;68.60
46139;DHT22;32398;49.112;8.598;2023-06-22T12:25:48;27.90;68.60
46139;DHT22;32398;49.112;8.598;2023-06-22T12:28:15;27.90;68.50
46139;DHT22;32398;49.112;8.598;2023-06-22T12:30:42;27.90;68.40
46139;DHT22;32398;49.112;8.598;2023-06-22T12:33:08;28.00;68.40
46139;DHT22;32398;49.112;8.598;2023-06-22T12:35:35;28.00;68.30
46139;DHT22;32398;49.112;8.598;2023-06-22T12:38:02;28.00;68.20
46139;DHT22;32398;49.112;8.598;2023-06-22T12:40:33;28.10;68.10
46139;DHT22;32398;49.112;8.598;2023-06-22T12:42:59;28.10;67.90
46139;DHT22;32398;49.112;8.598;2023-06-22T12:45:27;28.10;67.70
46139;DHT22;32398;49.112;8.598;2023-06-22T12:47:57;28.20;67.70
46139;DHT22;32398;49.112;8.598;2023-06-22T12:50:24;28.20;67.60
46139;DHT22;32398;49.112;8.598;2023-06-22T12:52:51;28.30;67.40
46139;DHT22;32398;49.112;8.598;2023-06-22T12:55:18;28.30;67.20
46139;DHT22;32398;49.112;8.598;2023-06-22T12:57:45;28.40;67.10
46139;DHT22;32398;49.112;8.598;2023-06-22T13:00:12;28.40;66.90
46139;DHT22;32398;49.112;8.598;2023-06-22T13:02:39;28.40;66.70
46139;DHT22;32398;49.112;8.598;2023-06-22T13:05:06;28.50;66.60
46139;DHT22;32398;49.112;8.598;2023-06-22T13:07:32;28.50;66.40
46139;DHT22;32398;49.112;8.598;2023-06-22T13:09:59;28.50;66.30
46139;DHT22;32398;49.112;8.598;2023-06-22T13:12:25;28.50;66.20
46139;DHT22;32398;49.112;8.598;2023-06-22T13:14:53;28.60;66.20
46139;DHT22;32398;49.112;8.598;2023-06-22T13:17:20;28.60;66.10
46139;DHT22;32398;49.112;8.598;2023-06-22T13:19:47;28.70;66.20
46139;DHT22;32398;49.112;8.598;2023-06-22T13:22:25;28.70;66.10
46139;DHT22;32398;49.112;8.598;2023-06-22T13:24:52;28.80;66.10
46139;DHT22;32398;49.112;8.598;2023-06-22T13:27:19;28.80;65.70
46139;DHT22;32398;49.112;8.598;2023-06-22T13:29:45;28.80;65.50
46139;DHT22;32398;49.112;8.598;2023-06-22T13:32:13;28.90;65.40
46139;DHT22;32398;49.112;8.598;2023-06-22T13:34:39;29.00;65.20
46139;DHT22;32398;49.112;8.598;2023-06-22T13:37:06;29.00;65.10
46139;DHT22;32398;49.112;8.598;2023-06-22T13:39:33;29.10;64.90
46139;DHT22;32398;49.112;8.598;2023-06-22T13:41:59;29.20;64.70
46139;DHT22;32398;49.112;8.598;2023-06-22T13:44:26;29.30;64.60
46139;DHT22;32398;49.112;8.598;2023-06-22T13:46:54;29.30;64.40
46139;DHT22;32398;49.112;8.598;2023-06-22T13:49:22;29.40;64.20
46139;DHT22;32398;49.112;8.598;2023-06-22T13:51:48;29.40;64.10
46139;DHT22;32398;49.112;8.598;2023-06-22T13:54:17;29.50;63.70
46139;DHT22;32398;49.112;8.598;2023-06-22T13:56:43;29.50;63.60
46139;DHT22;32398;49.112;8.598;2023-06-22T13:59:10;29.60;63.70
46139;DHT22;32398;49.112;8.598;2023-06-22T14:01:36;29.60;63.60
46139;DHT22;32398;49.112;8.598;2023-06-22T14:04:04;29.60;63.50
46139;DHT22;32398;49.112;8.598;2023-06-22T14:06:32;29.70;63.40
46139;DHT22;32398;49.112;8.598;2023-06-22T14:08:58;29.70;63.30
46139;DHT22;32398;49.112;8.598;2023-06-22T14:11:25;29.80;63.20
46139;DHT22;32398;49.112;8.598;2023-06-22T14:13:51;29.90;63.00
46139;DHT22;32398;49.112;8.598;2023-06-22T14:16:18;29.80;62.90
46139;DHT22;32398;49.112;8.598;2023-06-22T14:18:44;29.90;62.80
46139;DHT22;32398;49.112;8.598;2023-06-22T14:21:11;29.90;62.80
46139;DHT22;32398;49.112;8.598;2023-06-22T14:23:39;29.90;62.80
46139;DHT22;32398;49.112;8.598;2023-06-22T14:26:05;29.90;62.80
46139;DHT22;32398;49.112;8.598;2023-06-22T14:28:32;29.90;62.80
46139;DHT22;32398;49.112;8.598;2023-06-22T14:30:59;29.90;62.80
46139;DHT22;32398;49.112;8.598;2023-06-22T14:33:26;29.90;62.90
46139;DHT22;32398;49.112;8.598;2023-06-22T14:35:52;29.80;62.90
46139;DHT22;32398;49.112;8.598;2023-06-22T14:38:19;29.90;63.20
46139;DHT22;32398;49.112;8.598;2023-06-22T14:40:47;29.80;63.00
46139;DHT22;32398;49.112;8.598;2023-06-22T14:43:14;29.80;63.00
46139;DHT22;32398;49.112;8.598;2023-06-22T14:45:40;29.80;62.70
46139;DHT22;32398;49.112;8.598;2023-06-22T14:48:07;29.80;62.40
46139;DHT22;32398;49.112;8.598;2023-06-22T14:50:33;29.70;62.10
46139;DHT22;32398;49.112;8.598;2023-06-22T14:53:00;29.70;62.00
46139;DHT22;32398;49.112;8.598;2023-06-22T14:55:27;29.70;62.00
46139;DHT22;32398;49.112;8.598;2023-06-22T14:57:54;29.70;61.70
46139;DHT22;32398;49.112;8.598;2023-06-22T15:00:21;29.70;61.40
46139;DHT22;32398;49.112;8.598;2023-06-22T15:02:47;29.70;61.40
46139;DHT22;32398;49.112;8.598;2023-06-22T15:05:14;29.70;61.00
46139;DHT22;32398;49.112;8.598;2023-06-22T15:07:40;29.70;60.90
46139;DHT22;32398;49.112;8.598;2023-06-22T15:10:08;29.70;60.80
46139;DHT22;32398;49.112;8.598;2023-06-22T15:12:34;29.70;60.60
46139;DHT22;32398;49.112;8.598;2023-06-22T15:15:02;29.80;60.60
46139;DHT22;32398;49.112;8.598;2023-06-22T15:17:29;29.70;60.50
46139;DHT22;32398;49.112;8.598;2023-06-22T15:22:22;29.70;60.50
46139;DHT22;32398;49.112;8.598;2023-06-22T15:24:49;29.80;60.60
46139;DHT22;32398;49.112;8.598;2023-06-22T15:27:18;29.80;60.40
46139;DHT22;32398;49.112;8.598;2023-06-22T15:29:44;29.90;60.30
46139;DHT22;32398;49.112;8.598;2023-06-22T15:32:12;29.90;60.10